sensor_id;sensor_type;location;lat;lon;timestamp;temperature;humidity
20740;DHT22;10530;49.968;19.844;2023-02-26T00:04:58;1.50;99.90
20740;DHT22;10530;49.968;19.844;2023-02-26T00:10:00;1.60;99.90
20740;DHT22;10530;49.968;19.844;2023-02-26T00:15:05;1.50;99.90
20740;DHT22;10530;49.968;19.844;2023-02-26T00:20:10;1.60;99.90
20740;DHT22;10530;49.968;19.844;2023-02-26T00:25:13;1.60;99.90
20740;DHT22;10530;49.968;19.844;2023-02-26T00:30:16;1.60;99.90
20740;DHT22;10530;49.968;19.844;2023-02-26T00:35:19;1.60;99.90
20740;DHT22;10530;49.968;19.844;2023-02-26T00:46:02;1.60;99.90
20740;DHT22;10530;49.968;19.844;2023-02-26T00:51:31;1.60;99.90
20740;DHT22;10530;49.968;19.844;2023-02-26T00:56:37;1.60;99.90
20740;DHT22;10530;49.968;19.844;2023-02-26T01:01:40;1.60;99.90
20740;DHT22;10530;49.968;19.844;2023-02-26T01:06:48;1.60;99.90
20740;DHT22;10530;49.968;19.844;2023-02-26T01:11:53;1.60;99.90
20740;DHT22;10530;49.968;19.844;2023-02-26T01:22:30;1.50;99.90
20740;DHT22;10530;49.968;19.844;2023-02-26T01:27:35;1.50;99.90
20740;DHT22;10530;49.968;19.844;2023-02-26T01:32:43;1.50;99.90
20740;DHT22;10530;49.968;19.844;2023-02-26T01:38:03;1.50;99.90
20740;DHT22;10530;49.968;19.844;2023-02-26T01:43:18;1.50;99.90
20740;DHT22;10530;49.968;19.844;2023-02-26T01:48:37;1.50;99.90
20740;DHT22;10530;49.968;19.844;2023-02-26T01:53:45;1.50;99.90
20740;DHT22;10530;49.968;19.844;2023-02-26T01:58:49;1.50;99.90
20740;DHT22;10530;49.968;19.844;2023-02-26T02:03:52;1.50;99.90
20740;DHT22;10530;49.968;19.844;2023-02-26T02:08:55;1.50;99.90
20740;DHT22;10530;49.968;19.844;2023-02-26T02:14:17;1.50;99.90
20740;DHT22;10530;49.968;19.844;2023-02-26T02:19:35;1.50;99.90
20740;DHT22;10530;49.968;19.844;2023-02-26T02:36:14;1.60;99.90
20740;DHT22;10530;49.968;19.844;2023-02-26T02:41:29;1.60;99.90
20740;DHT22;10530;49.968;19.844;2023-02-26T02:46:36;1.50;99.90
20740;DHT22;10530;49.968;19.844;2023-02-26T02:52:02;1.40;99.90
20740;DHT22;10530;49.968;19.844;2023-02-26T02:57:15;1.40;99.90
20740;DHT22;10530;49.968;19.844;2023-02-26T03:02:27;1.40;99.90
20740;DHT22;10530;49.968;19.844;2023-02-26T03:07:40;1.40;99.90
20740;DHT22;10530;49.968;19.844;2023-02-26T03:12:44;1.40;99.90
20740;DHT22;10530;49.968;19.844;2023-02-26T03:17:56;1.40;99.90
20740;DHT22;10530;49.968;19.844;2023-02-26T03:23:13;1.40;99.90
20740;DHT22;10530;49.968;19.844;2023-02-26T03:39:18;1.40;99.90
20740;DHT22;10530;49.968;19.844;2023-02-26T03:44:36;1.40;99.90
20740;DHT22;10530;49.968;19.844;2023-02-26T03:49:48;1.30;99.90
20740;DHT22;10530;49.968;19.844;2023-02-26T04:00:35;1.30;99.90
20740;DHT22;10530;49.968;19.844;2023-02-26T04:05:44;1.30;99.90
20740;DHT22;10530;49.968;19.844;2023-02-26T04:10:58;1.30;99.90
20740;DHT22;10530;49.968;19.844;2023-02-26T04:16:05;1.30;99.90
20740;DHT22;10530;49.968;19.844;2023-02-26T04:21:16;1.30;99.90
20740;DHT22;10530;49.968;19.844;2023-02-26T04:26:21;1.30;99.90
20740;DHT22;10530;49.968;19.844;2023-02-26T04:31:24;1.20;99.90
20740;DHT22;10530;49.968;19.844;2023-02-26T04:36:27;1.20;99.90
20740;DHT22;10530;49.968;19.844;2023-02-26T04:41:32;1.20;99.90
20740;DHT22;10530;49.968;19.844;2023-02-26T04:46:34;1.20;99.90
20740;DHT22;10530;49.968;19.844;2023-02-26T04:51:37;1.10;99.90
20740;DHT22;10530;49.968;19.844;2023-02-26T04:56:41;1.00;99.90
20740;DHT22;10530;49.968;19.844;2023-02-26T05:01:44;1.10;99.90
20740;DHT22;10530;49.968;19.844;2023-02-26T05:06:47;1.00;99.90
20740;DHT22;10530;49.968;19.844;2023-02-26T05:11:50;1.00;99.90
20740;DHT22;10530;49.968;19.844;2023-02-26T05:16:52;1.00;99.90
20740;DHT22;10530;49.968;19.844;2023-02-26T05:21:55;1.00;99.90
20740;DHT22;10530;49.968;19.844;2023-02-26T05:26:58;1.00;99.90
20740;DHT22;10530;49.968;19.844;2023-02-26T05:32:01;1.00;99.90
20740;DHT22;10530;49.968;19.844;2023-02-26T05:37:04;1.00;99.90
20740;DHT22;10530;49.968;19.844;2023-02-26T05:42:07;1.00;99.90
20740;DHT22;10530;49.968;19.844;2023-02-26T05:47:10;1.00;99.90
20740;DHT22;10530;49.968;19.844;2023-02-26T05:52:13;0.80;99.90
20740;DHT22;10530;49.968;19.844;2023-02-26T05:57:16;0.80;99.90
20740;DHT22;10530;49.968;19.844;2023-02-26T06:02:18;0.70;99.90
20740;DHT22;10530;49.968;19.844;2023-02-26T06:07:21;0.70;99.90
20740;DHT22;10530;49.968;19.844;2023-02-26T06:12:26;0.70;99.90
20740;DHT22;10530;49.968;19.844;2023-02-26T06:17:28;0.70;99.90
20740;DHT22;10530;49.968;19.844;2023-02-26T06:22:31;0.80;99.90
20740;DHT22;10530;49.968;19.844;2023-02-26T06:27:34;0.80;99.90
20740;DHT22;10530;49.968;19.844;2023-02-26T06:32:36;0.80;99.90
20740;DHT22;10530;49.968;19.844;2023-02-26T06:37:39;0.80;99.90
20740;DHT22;10530;49.968;19.844;2023-02-26T06:42:42;0.80;99.90
20740;DHT22;10530;49.968;19.844;2023-02-26T06:47:45;0.90;99.90
20740;DHT22;10530;49.968;19.844;2023-02-26T06:52:47;0.90;99.90
20740;DHT22;10530;49.968;19.844;2023-02-26T06:57:50;1.10;99.90
20740;DHT22;10530;49.968;19.844;2023-02-26T07:02:53;1.20;99.90
20740;DHT22;10530;49.968;19.844;2023-02-26T07:07:56;1.40;99.90
20740;DHT22;10530;49.968;19.844;2023-02-26T07:12:59;1.40;99.90
20740;DHT22;10530;49.968;19.844;2023-02-26T07:18:01;1.60;99.90
20740;DHT22;10530;49.968;19.844;2023-02-26T07:23:04;1.80;99.90
20740;DHT22;10530;49.968;19.844;2023-02-26T07:28:07;3.30;99.90
20740;DHT22;10530;49.968;19.844;2023-02-26T07:33:10;3.00;99.90
20740;DHT22;10530;49.968;19.844;2023-02-26T07:38:14;2.60;99.90
20740;DHT22;10530;49.968;19.844;2023-02-26T07:43:20;2.50;99.90
20740;DHT22;10530;49.968;19.844;2023-02-26T07:48:23;4.80;99.90
20740;DHT22;10530;49.968;19.844;2023-02-26T07:53:26;3.60;99.90
20740;DHT22;10530;49.968;19.844;2023-02-26T07:58:28;3.30;99.90
20740;DHT22;10530;49.968;19.844;2023-02-26T08:03:31;2.80;99.90
20740;DHT22;10530;49.968;19.844;2023-02-26T08:08:34;2.20;99.90
20740;DHT22;10530;49.968;19.844;2023-02-26T08:13:37;2.10;99.90
20740;DHT22;10530;49.968;19.844;2023-02-26T08:18:40;2.10;99.90
20740;DHT22;10530;49.968;19.844;2023-02-26T08:23:43;2.00;99.90
20740;DHT22;10530;49.968;19.844;2023-02-26T08:28:46;1.90;99.90
20740;DHT22;10530;49.968;19.844;2023-02-26T08:33:49;2.00;99.90
20740;DHT22;10530;49.968;19.844;2023-02-26T08:38:52;2.00;99.90
20740;DHT22;10530;49.968;19.844;2023-02-26T08:43:55;1.80;99.90
20740;DHT22;10530;49.968;19.844;2023-02-26T08:48:58;1.80;99.90
20740;DHT22;10530;49.968;19.844;2023-02-26T08:54:00;1.80;99.90
20740;DHT22;10530;49.968;19.844;2023-02-26T08:59:03;1.50;99.90
20740;DHT22;10530;49.968;19.844;2023-02-26T09:04:06;1.10;99.90
20740;DHT22;10530;49.968;19.844;2023-02-26T09:09:09;1.10;99.90
20740;DHT22;10530;49.968;19.844;2023-02-26T09:14:12;1.40;99.90
20740;DHT22;10530;49.968;19.844;2023-02-26T09:19:14;1.60;99.90
20740;DHT22;10530;49.968;19.844;2023-02-26T09:24:17;1.80;99.90
20740;DHT22;10530;49.968;19.844;2023-02-26T09:29:20;2.10;99.90
20740;DHT22;10530;49.968;19.844;2023-02-26T09:34:23;2.30;99.90
20740;DHT22;10530;49.968;19.844;2023-02-26T09:39:26;2.60;99.90
20740;DHT22;10530;49.968;19.844;2023-02-26T09:44:35;2.80;99.90
20740;DHT22;10530;49.968;19.844;2023-02-26T09:54:55;7.00;99.90
20740;DHT22;10530;49.968;19.844;2023-02-26T10:00:02;10.20;75.10
20740;DHT22;10530;49.968;19.844;2023-02-26T10:15:49;11.90;41.60
20740;DHT22;10530;49.968;19.844;2023-02-26T10:21:00;11.20;38.40
20740;DHT22;10530;49.968;19.844;2023-02-26T10:26:41;10.40;42.80
20740;DHT22;10530;49.968;19.844;2023-02-26T10:36:57;5.00;59.20
20740;DHT22;10530;49.968;19.844;2023-02-26T10:42:09;4.20;68.50
20740;DHT22;10530;49.968;19.844;2023-02-26T10:52:25;3.30;74.80
20740;DHT22;10530;49.968;19.844;2023-02-26T10:57:31;3.30;85.40
20740;DHT22;10530;49.968;19.844;2023-02-26T11:02:44;3.30;82.90
20740;DHT22;10530;49.968;19.844;2023-02-26T11:07:51;4.60;85.50
20740;DHT22;10530;49.968;19.844;2023-02-26T11:12:55;4.70;71.40
20740;DHT22;10530;49.968;19.844;2023-02-26T11:17:59;5.20;68.80
20740;DHT22;10530;49.968;19.844;2023-02-26T11:23:05;5.10;78.80
20740;DHT22;10530;49.968;19.844;2023-02-26T11:28:21;8.00;66.60
20740;DHT22;10530;49.968;19.844;2023-02-26T11:33:35;8.50;78.40
20740;DHT22;10530;49.968;19.844;2023-02-26T11:38:38;8.40;63.50
20740;DHT22;10530;49.968;19.844;2023-02-26T11:43:44;7.90;59.60
20740;DHT22;10530;49.968;19.844;2023-02-26T11:48:48;7.10;59.90
20740;DHT22;10530;49.968;19.844;2023-02-26T11:53:54;5.60;95.40
20740;DHT22;10530;49.968;19.844;2023-02-26T11:59:06;3.60;99.90
20740;DHT22;10530;49.968;19.844;2023-02-26T12:04:13;2.60;99.90
20740;DHT22;10530;49.968;19.844;2023-02-26T12:09:16;2.30;99.90
20740;DHT22;10530;49.968;19.844;2023-02-26T12:19:42;2.40;99.90
20740;DHT22;10530;49.968;19.844;2023-02-26T12:30:22;2.50;99.90
20740;DHT22;10530;49.968;19.844;2023-02-26T12:36:23;2.70;99.90
20740;DHT22;10530;49.968;19.844;2023-02-26T12:41:41;3.00;99.90
20740;DHT22;10530;49.968;19.844;2023-02-26T12:47:14;3.60;99.90
20740;DHT22;10530;49.968;19.844;2023-02-26T13:24:13;1.90;99.90
20740;DHT22;10530;49.968;19.844;2023-02-26T13:29:29;1.80;99.90
20740;DHT22;10530;49.968;19.844;2023-02-26T13:34:56;1.80;99.90
20740;DHT22;10530;49.968;19.844;2023-02-26T13:45:55;1.90;99.90
20740;DHT22;10530;49.968;19.844;2023-02-26T13:51:28;2.00;99.90
20740;DHT22;10530;49.968;19.844;2023-02-26T14:01:54;1.40;99.90
20740;DHT22;10530;49.968;19.844;2023-02-26T14:07:05;1.30;99.90
20740;DHT22;10530;49.968;19.844;2023-02-26T14:22:36;1.70;99.90
20740;DHT22;10530;49.968;19.844;2023-02-26T14:27:45;1.90;99.90
20740;DHT22;10530;49.968;19.844;2023-02-26T14:32:52;2.20;99.90
20740;DHT22;10530;49.968;19.844;2023-02-26T14:43:03;2.70;99.90
20740;DHT22;10530;49.968;19.844;2023-02-26T14:48:14;2.60;99.90
20740;DHT22;10530;49.968;19.844;2023-02-26T14:53:40;2.60;99.90
20740;DHT22;10530;49.968;19.844;2023-02-26T15:15:46;2.10;99.90
20740;DHT22;10530;49.968;19.844;2023-02-26T15:26:17;1.80;99.90
20740;DHT22;10530;49.968;19.844;2023-02-26T15:31:29;1.80;99.90
20740;DHT22;10530;49.968;19.844;2023-02-26T15:36:33;1.70;99.90
20740;DHT22;10530;49.968;19.844;2023-02-26T15:41:37;1.50;99.90
20740;DHT22;10530;49.968;19.844;2023-02-26T15:46:44;1.40;99.90
20740;DHT22;10530;49.968;19.844;2023-02-26T15:51:47;1.40;99.90
20740;DHT22;10530;49.968;19.844;2023-02-26T15:56:50;1.30;99.90
20740;DHT22;10530;49.968;19.844;2023-02-26T16:01:54;1.10;99.90
20740;DHT22;10530;49.968;19.844;2023-02-26T16:06:57;1.10;99.90
20740;DHT22;10530;49.968;19.844;2023-02-26T16:12:07;1.20;99.90
20740;DHT22;10530;49.968;19.844;2023-02-26T16:17:15;1.10;99.90
20740;DHT22;10530;49.968;19.844;2023-02-26T16:22:55;1.10;99.90
20740;DHT22;10530;49.968;19.844;2023-02-26T16:27:58;1.00;99.90
20740;DHT22;10530;49.968;19.844;2023-02-26T16:33:04;0.90;99.90
20740;DHT22;10530;49.968;19.844;2023-02-26T16:38:30;0.90;99.90
20740;DHT22;10530;49.968;19.844;2023-02-26T16:49:01;0.80;99.90
20740;DHT22;10530;49.968;19.844;2023-02-26T16:54:08;0.80;99.90
20740;DHT22;10530;49.968;19.844;2023-02-26T17:04:29;0.80;99.90
20740;DHT22;10530;49.968;19.844;2023-02-26T17:09:40;0.70;99.90
20740;DHT22;10530;49.968;19.844;2023-02-26T17:14:54;0.70;99.90
20740;DHT22;10530;49.968;19.844;2023-02-26T17:19:58;0.70;99.90
20740;DHT22;10530;49.968;19.844;2023-02-26T17:25:01;0.60;99.90
20740;DHT22;10530;49.968;19.844;2023-02-26T17:30:05;0.50;99.90
20740;DHT22;10530;49.968;19.844;2023-02-26T17:35:11;0.50;99.90
20740;DHT22;10530;49.968;19.844;2023-02-26T17:40:18;0.60;99.90
20740;DHT22;10530;49.968;19.844;2023-02-26T17:45:22;0.50;99.90
20740;DHT22;10530;49.968;19.844;2023-02-26T17:55:44;0.50;99.90
20740;DHT22;10530;49.968;19.844;2023-02-26T18:00:47;0.50;99.90
20740;DHT22;10530;49.968;19.844;2023-02-26T18:05:55;0.50;99.90
20740;DHT22;10530;49.968;19.844;2023-02-26T18:11:00;0.50;99.90
20740;DHT22;10530;49.968;19.844;2023-02-26T18:16:04;0.50;99.90
20740;DHT22;10530;49.968;19.844;2023-02-26T18:21:07;0.50;99.90
20740;DHT22;10530;49.968;19.844;2023-02-26T18:26:11;0.50;99.90
20740;DHT22;10530;49.968;19.844;2023-02-26T18:31:16;0.40;99.90
20740;DHT22;10530;49.968;19.844;2023-02-26T18:36:27;0.30;99.90
20740;DHT22;10530;49.968;19.844;2023-02-26T18:41:36;0.30;99.90
20740;DHT22;10530;49.968;19.844;2023-02-26T18:46:39;0.40;99.90
20740;DHT22;10530;49.968;19.844;2023-02-26T18:51:43;0.50;99.90
20740;DHT22;10530;49.968;19.844;2023-02-26T18:56:46;0.50;99.90
20740;DHT22;10530;49.968;19.844;2023-02-26T19:01:49;0.50;99.90
20740;DHT22;10530;49.968;19.844;2023-02-26T19:06:52;0.50;99.90
20740;DHT22;10530;49.968;19.844;2023-02-26T19:11:55;0.50;99.90
20740;DHT22;10530;49.968;19.844;2023-02-26T19:16:58;0.50;99.90
20740;DHT22;10530;49.968;19.844;2023-02-26T19:22:01;0.50;99.90
20740;DHT22;10530;49.968;19.844;2023-02-26T19:27:04;0.50;99.90
20740;DHT22;10530;49.968;19.844;2023-02-26T19:32:07;0.50;99.90
20740;DHT22;10530;49.968;19.844;2023-02-26T19:37:10;0.50;99.90
20740;DHT22;10530;49.968;19.844;2023-02-26T19:42:14;0.50;99.90
20740;DHT22;10530;49.968;19.844;2023-02-26T19:47:17;0.50;99.90
20740;DHT22;10530;49.968;19.844;2023-02-26T19:52:19;0.50;99.90
20740;DHT22;10530;49.968;19.844;2023-02-26T19:57:22;0.60;99.90
20740;DHT22;10530;49.968;19.844;2023-02-26T20:02:25;0.50;99.90
20740;DHT22;10530;49.968;19.844;2023-02-26T20:07:28;0.50;99.90
20740;DHT22;10530;49.968;19.844;2023-02-26T20:12:31;0.60;99.90
20740;DHT22;10530;49.968;19.844;2023-02-26T20:17:34;0.50;99.90
20740;DHT22;10530;49.968;19.844;2023-02-26T20:22:36;0.40;99.90
20740;DHT22;10530;49.968;19.844;2023-02-26T20:27:39;0.40;99.90
20740;DHT22;10530;49.968;19.844;2023-02-26T20:32:42;0.40;99.90
20740;DHT22;10530;49.968;19.844;2023-02-26T20:37:45;0.40;99.90
20740;DHT22;10530;49.968;19.844;2023-02-26T20:42:48;0.50;99.90
20740;DHT22;10530;49.968;19.844;2023-02-26T20:47:51;0.50;99.90
20740;DHT22;10530;49.968;19.844;2023-02-26T20:52:54;0.40;99.90
20740;DHT22;10530;49.968;19.844;2023-02-26T20:57:57;0.50;99.90
20740;DHT22;10530;49.968;19.844;2023-02-26T21:03:00;0.50;99.90
20740;DHT22;10530;49.968;19.844;2023-02-26T21:08:03;0.40;99.90
20740;DHT22;10530;49.968;19.844;2023-02-26T21:13:07;0.40;99.90
20740;DHT22;10530;49.968;19.844;2023-02-26T21:18:10;0.40;99.90
20740;DHT22;10530;49.968;19.844;2023-02-26T21:23:13;0.40;99.90
20740;DHT22;10530;49.968;19.844;2023-02-26T21:28:16;0.40;99.90
20740;DHT22;10530;49.968;19.844;2023-02-26T21:33:19;0.50;99.90
20740;DHT22;10530;49.968;19.844;2023-02-26T21:38:22;0.40;99.90
20740;DHT22;10530;49.968;19.844;2023-02-26T21:43:25;0.50;99.90
20740;DHT22;10530;49.968;19.844;2023-02-26T21:48:27;0.40;99.90
20740;DHT22;10530;49.968;19.844;2023-02-26T21:53:30;0.40;99.90
20740;DHT22;10530;49.968;19.844;2023-02-26T21:58:33;0.20;99.90
20740;DHT22;10530;49.968;19.844;2023-02-26T22:03:37;0.30;99.90
20740;DHT22;10530;49.968;19.844;2023-02-26T22:08:39;0.20;99.90
20740;DHT22;10530;49.968;19.844;2023-02-26T22:13:42;0.20;99.90
20740;DHT22;10530;49.968;19.844;2023-02-26T22:18:45;0.30;99.90
20740;DHT22;10530;49.968;19.844;2023-02-26T22:23:49;0.30;99.90
20740;DHT22;10530;49.968;19.844;2023-02-26T22:28:52;0.30;99.90
20740;DHT22;10530;49.968;19.844;2023-02-26T22:33:56;0.30;99.90
20740;DHT22;10530;49.968;19.844;2023-02-26T22:38:59;0.30;99.90
20740;DHT22;10530;49.968;19.844;2023-02-26T22:44:02;0.40;99.90
20740;DHT22;10530;49.968;19.844;2023-02-26T22:49:04;0.30;99.90
20740;DHT22;10530;49.968;19.844;2023-02-26T22:54:07;0.30;99.90
20740;DHT22;10530;49.968;19.844;2023-02-26T22:59:10;0.30;99.90
20740;DHT22;10530;49.968;19.844;2023-02-26T23:04:13;0.40;99.90
20740;DHT22;10530;49.968;19.844;2023-02-26T23:09:15;0.50;99.90
20740;DHT22;10530;49.968;19.844;2023-02-26T23:14:18;0.50;99.90
20740;DHT22;10530;49.968;19.844;2023-02-26T23:19:21;0.50;99.90
20740;DHT22;10530;49.968;19.844;2023-02-26T23:24:24;0.40;99.90
20740;DHT22;10530;49.968;19.844;2023-02-26T23:29:27;0.40;99.90
20740;DHT22;10530;49.968;19.844;2023-02-26T23:34:29;0.40;99.90
20740;DHT22;10530;49.968;19.844;2023-02-26T23:39:32;0.40;99.90
20740;DHT22;10530;49.968;19.844;2023-02-26T23:44:35;0.50;99.90
20740;DHT22;10530;49.968;19.844;2023-02-26T23:49:37;0.50;99.90
20740;DHT22;10530;49.968;19.844;2023-02-26T23:54:40;0.50;99.90
20740;DHT22;10530;49.968;19.844;2023-02-26T23:59:43;0.50;99.90
